Aérodrome :
LOGIN :

S'inscrire | Disclaimer

   EN    FR    IT 

 










Légende :    VFR   VFR Marginal   IFR   IFR Intensif   IFR Très Intensif
Visi : 
Plafond : 
>= 8 km
>= 3000ft
5 à 8 km
1000 à 3000 ft
1500m à 5 km
500 à 1000 ft
800 à 1500m
200 à 500 ft
< 800m
< 200 ft
Symboles :   Orages  Brouillard  Fortes neiges  Fortes précipitations  Vent > 20 kt
SIGMETs :   Divers  Orages  Givrage  Turbulence  Onde Orograph.  Cendres Volcan.







- Altitude de l'aérodrome : 1249 ft


ETSN - Neuburg AB

DERNIER METAR :
  • 181820Z 07001KT 9999 FEW015 SCT027 BKN042 M00/M02 Q1026 BLU BLU TEMPO WHT

METARs EXPIRÉS :
  • 181801Z 03001KT 9999 -SN FEW015 BKN027 M00/M01 Q1026 BLU BLU TEMPO WHT
  • 181720Z 07001KT 9999 FEW015 BKN023 00/M02 Q1025 WHT BLU TEMPO WHT
  • 181620Z VRB01KT 9999 -SN FEW015 BKN019 00/M02 Q1024 WHT BLU TEMPO WHT

TAF AMD TAF ETSN
Valide du 18 à 18h jusqu'au 19 à 03h UTC


181807Z 1818/1903 03003KT 9999 NSW SCT015 BKN030
TEMPO 1818/1820 03005KT 7000 NSW BKN015 OVC030
BECMG 1820/1822 06002KT 5000 BR SCT012 SCT020
TEMPO 1822/1903 VRB02KT 1600 BR SCT012
PROB30 1901/1903 VRB02KT 0400 FZFG VV001 BY ETGL
Pas de NOTAMs connus pour ce terrain.



MET'MAP, la Météo Aéronautique d'un coup d'oeil ! - Copyright ORBIFLY Décembre 2007 - Disclaimer

ORBIFLY MET'MAP TEAM :

Programmation & Développement : Alexandra Zaïnal
Conception & Développement : Baudouin d'Aumeries
Co-Programmation & Développement : Marc-Olivier Méhu
Soutien technique & logistique : Manuel Goepfert

Contact : metmap@orbifly.com




SOURCES & CREDITS :

   NOAA